sensor_id;sensor_type;location;lat;lon;timestamp;P1;durP1;ratioP1;P2;durP2;ratioP2
9138;SDS011;4604;48.616;9.548;2022-08-18T00:01:48;9.77;;;6.68;;
9138;SDS011;4604;48.616;9.548;2022-08-18T00:04:17;8.77;;;6.82;;
9138;SDS011;4604;48.616;9.548;2022-08-18T00:06:44;7.53;;;6.13;;
9138;SDS011;4604;48.616;9.548;2022-08-18T00:09:11;7.30;;;6.55;;
9138;SDS011;4604;48.616;9.548;2022-08-18T00:11:39;9.43;;;7.40;;
9138;SDS011;4604;48.616;9.548;2022-08-18T00:14:07;10.23;;;6.80;;
9138;SDS011;4604;48.616;9.548;2022-08-18T00:16:38;6.95;;;6.00;;
9138;SDS011;4604;48.616;9.548;2022-08-18T00:19:05;10.50;;;7.40;;
9138;SDS011;4604;48.616;9.548;2022-08-18T00:21:33;8.85;;;7.22;;
9138;SDS011;4604;48.616;9.548;2022-08-18T00:24:00;8.15;;;7.32;;
9138;SDS011;4604;48.616;9.548;2022-08-18T00:26:26;8.55;;;7.22;;
9138;SDS011;4604;48.616;9.548;2022-08-18T00:28:53;7.55;;;6.25;;
9138;SDS011;4604;48.616;9.548;2022-08-18T00:31:20;9.13;;;7.43;;
9138;SDS011;4604;48.616;9.548;2022-08-18T00:33:46;9.18;;;7.10;;
9138;SDS011;4604;48.616;9.548;2022-08-18T00:36:13;8.38;;;6.95;;
9138;SDS011;4604;48.616;9.548;2022-08-18T00:38:41;9.93;;;7.63;;
9138;SDS011;4604;48.616;9.548;2022-08-18T00:41:08;7.70;;;6.45;;
9138;SDS011;4604;48.616;9.548;2022-08-18T00:43:36;7.97;;;7.18;;
9138;SDS011;4604;48.616;9.548;2022-08-18T00:46:07;10.27;;;7.43;;
9138;SDS011;4604;48.616;9.548;2022-08-18T00:48:36;7.25;;;5.95;;
9138;SDS011;4604;48.616;9.548;2022-08-18T00:51:04;10.25;;;7.07;;
9138;SDS011;4604;48.616;9.548;2022-08-18T00:53:37;8.40;;;7.38;;
9138;SDS011;4604;48.616;9.548;2022-08-18T00:56:11;8.55;;;7.55;;
9138;SDS011;4604;48.616;9.548;2022-08-18T00:58:42;10.80;;;7.18;;
9138;SDS011;4604;48.616;9.548;2022-08-18T01:01:13;11.43;;;7.80;;
9138;SDS011;4604;48.616;9.548;2022-08-18T01:03:44;7.25;;;6.55;;
9138;SDS011;4604;48.616;9.548;2022-08-18T01:06:20;7.20;;;6.22;;
9138;SDS011;4604;48.616;9.548;2022-08-18T01:08:56;7.18;;;6.40;;
9138;SDS011;4604;48.616;9.548;2022-08-18T01:11:25;7.22;;;6.50;;
9138;SDS011;4604;48.616;9.548;2022-08-18T01:13:52;10.45;;;7.25;;
9138;SDS011;4604;48.616;9.548;2022-08-18T01:16:19;10.02;;;7.20;;
9138;SDS011;4604;48.616;9.548;2022-08-18T01:19:03;9.52;;;6.43;;
9138;SDS011;4604;48.616;9.548;2022-08-18T01:21:50;7.43;;;6.68;;
9138;SDS011;4604;48.616;9.548;2022-08-18T01:24:25;9.27;;;7.07;;
9138;SDS011;4604;48.616;9.548;2022-08-18T01:27:09;8.15;;;6.68;;
9138;SDS011;4604;48.616;9.548;2022-08-18T01:29:39;11.13;;;7.72;;
9138;SDS011;4604;48.616;9.548;2022-08-18T01:32:06;7.03;;;6.25;;
9138;SDS011;4604;48.616;9.548;2022-08-18T01:34:32;9.30;;;7.57;;
9138;SDS011;4604;48.616;9.548;2022-08-18T01:36:59;7.72;;;6.90;;
9138;SDS011;4604;48.616;9.548;2022-08-18T01:39:30;7.30;;;6.60;;
9138;SDS011;4604;48.616;9.548;2022-08-18T01:41:57;11.48;;;7.13;;
9138;SDS011;4604;48.616;9.548;2022-08-18T01:44:23;8.27;;;7.38;;
9138;SDS011;4604;48.616;9.548;2022-08-18T01:46:51;8.55;;;6.85;;
9138;SDS011;4604;48.616;9.548;2022-08-18T01:49:18;8.38;;;7.20;;
9138;SDS011;4604;48.616;9.548;2022-08-18T01:51:45;8.90;;;7.13;;
9138;SDS011;4604;48.616;9.548;2022-08-18T01:54:13;8.20;;;6.72;;
9138;SDS011;4604;48.616;9.548;2022-08-18T01:56:41;8.00;;;7.20;;
9138;SDS011;4604;48.616;9.548;2022-08-18T01:59:08;7.90;;;7.00;;
9138;SDS011;4604;48.616;9.548;2022-08-18T02:01:39;7.90;;;7.10;;
9138;SDS011;4604;48.616;9.548;2022-08-18T02:04:07;7.75;;;7.05;;
9138;SDS011;4604;48.616;9.548;2022-08-18T02:06:37;7.15;;;6.45;;
9138;SDS011;4604;48.616;9.548;2022-08-18T02:09:04;8.07;;;7.28;;
9138;SDS011;4604;48.616;9.548;2022-08-18T02:11:31;8.45;;;7.15;;
9138;SDS011;4604;48.616;9.548;2022-08-18T02:13:59;8.57;;;6.90;;
9138;SDS011;4604;48.616;9.548;2022-08-18T02:16:26;8.50;;;7.60;;
9138;SDS011;4604;48.616;9.548;2022-08-18T02:18:53;12.35;;;8.02;;
9138;SDS011;4604;48.616;9.548;2022-08-18T02:21:20;8.75;;;7.43;;
9138;SDS011;4604;48.616;9.548;2022-08-18T02:23:47;7.43;;;6.38;;
9138;SDS011;4604;48.616;9.548;2022-08-18T02:26:15;9.20;;;7.43;;
9138;SDS011;4604;48.616;9.548;2022-08-18T02:28:43;7.85;;;6.85;;
9138;SDS011;4604;48.616;9.548;2022-08-18T02:31:12;8.57;;;7.30;;
9138;SDS011;4604;48.616;9.548;2022-08-18T02:33:42;9.70;;;7.50;;
9138;SDS011;4604;48.616;9.548;2022-08-18T02:36:09;8.07;;;6.85;;
9138;SDS011;4604;48.616;9.548;2022-08-18T02:38:37;8.15;;;6.50;;
9138;SDS011;4604;48.616;9.548;2022-08-18T02:41:05;6.70;;;6.10;;
9138;SDS011;4604;48.616;9.548;2022-08-18T02:43:33;8.07;;;7.22;;
9138;SDS011;4604;48.616;9.548;2022-08-18T02:46:01;8.40;;;6.95;;
9138;SDS011;4604;48.616;9.548;2022-08-18T02:48:31;7.57;;;6.80;;
9138;SDS011;4604;48.616;9.548;2022-08-18T02:51:00;7.20;;;6.43;;
9138;SDS011;4604;48.616;9.548;2022-08-18T02:53:27;7.68;;;6.82;;
9138;SDS011;4604;48.616;9.548;2022-08-18T02:55:54;7.75;;;6.78;;
9138;SDS011;4604;48.616;9.548;2022-08-18T02:58:21;9.40;;;7.78;;
9138;SDS011;4604;48.616;9.548;2022-08-18T03:00:47;7.93;;;7.13;;
9138;SDS011;4604;48.616;9.548;2022-08-18T03:03:14;8.50;;;7.10;;
9138;SDS011;4604;48.616;9.548;2022-08-18T03:05:42;7.18;;;6.47;;
9138;SDS011;4604;48.616;9.548;2022-08-18T03:08:09;6.85;;;6.18;;
9138;SDS011;4604;48.616;9.548;2022-08-18T03:10:36;7.40;;;6.40;;
9138;SDS011;4604;48.616;9.548;2022-08-18T03:13:03;7.70;;;6.28;;
9138;SDS011;4604;48.616;9.548;2022-08-18T03:15:30;6.95;;;6.05;;
9138;SDS011;4604;48.616;9.548;2022-08-18T03:17:57;8.45;;;6.65;;
9138;SDS011;4604;48.616;9.548;2022-08-18T03:20:25;7.30;;;6.60;;
9138;SDS011;4604;48.616;9.548;2022-08-18T03:22:53;7.93;;;6.88;;
9138;SDS011;4604;48.616;9.548;2022-08-18T03:25:20;9.00;;;7.28;;
9138;SDS011;4604;48.616;9.548;2022-08-18T03:27:47;6.97;;;6.28;;
9138;SDS011;4604;48.616;9.548;2022-08-18T03:30:14;9.88;;;7.22;;
9138;SDS011;4604;48.616;9.548;2022-08-18T03:32:40;9.15;;;7.15;;
9138;SDS011;4604;48.616;9.548;2022-08-18T03:35:07;9.95;;;6.32;;
9138;SDS011;4604;48.616;9.548;2022-08-18T03:37:34;8.07;;;7.00;;
9138;SDS011;4604;48.616;9.548;2022-08-18T03:40:03;8.68;;;7.68;;
9138;SDS011;4604;48.616;9.548;2022-08-18T03:42:31;10.18;;;7.47;;
9138;SDS011;4604;48.616;9.548;2022-08-18T03:44:57;7.05;;;6.35;;
9138;SDS011;4604;48.616;9.548;2022-08-18T03:47:24;7.40;;;6.68;;
9138;SDS011;4604;48.616;9.548;2022-08-18T03:49:51;10.48;;;7.28;;
9138;SDS011;4604;48.616;9.548;2022-08-18T03:52:18;9.23;;;7.97;;
9138;SDS011;4604;48.616;9.548;2022-08-18T03:54:45;7.80;;;6.78;;
9138;SDS011;4604;48.616;9.548;2022-08-18T03:57:13;8.95;;;8.05;;
9138;SDS011;4604;48.616;9.548;2022-08-18T03:59:40;8.23;;;7.43;;
9138;SDS011;4604;48.616;9.548;2022-08-18T04:02:08;9.15;;;8.25;;
9138;SDS011;4604;48.616;9.548;2022-08-18T04:04:36;9.65;;;8.57;;
9138;SDS011;4604;48.616;9.548;2022-08-18T04:07:05;10.02;;;8.82;;
9138;SDS011;4604;48.616;9.548;2022-08-18T04:09:34;9.65;;;8.48;;
9138;SDS011;4604;48.616;9.548;2022-08-18T04:12:03;11.35;;;9.02;;
9138;SDS011;4604;48.616;9.548;2022-08-18T04:14:38;8.82;;;7.93;;
9138;SDS011;4604;48.616;9.548;2022-08-18T04:17:06;13.35;;;9.18;;
9138;SDS011;4604;48.616;9.548;2022-08-18T04:19:33;11.40;;;9.38;;
9138;SDS011;4604;48.616;9.548;2022-08-18T04:22:02;13.27;;;9.93;;
9138;SDS011;4604;48.616;9.548;2022-08-18T04:24:30;11.50;;;9.10;;
9138;SDS011;4604;48.616;9.548;2022-08-18T04:26:58;12.30;;;8.82;;
9138;SDS011;4604;48.616;9.548;2022-08-18T04:29:27;12.45;;;10.57;;
9138;SDS011;4604;48.616;9.548;2022-08-18T04:31:55;13.48;;;11.15;;
9138;SDS011;4604;48.616;9.548;2022-08-18T04:34:25;11.50;;;9.35;;
9138;SDS011;4604;48.616;9.548;2022-08-18T04:36:52;10.63;;;8.45;;
9138;SDS011;4604;48.616;9.548;2022-08-18T04:39:19;10.25;;;9.13;;
9138;SDS011;4604;48.616;9.548;2022-08-18T04:41:46;9.70;;;8.70;;
9138;SDS011;4604;48.616;9.548;2022-08-18T04:44:13;9.40;;;8.07;;
9138;SDS011;4604;48.616;9.548;2022-08-18T04:46:42;10.18;;;7.70;;
9138;SDS011;4604;48.616;9.548;2022-08-18T04:49:13;10.35;;;9.15;;
9138;SDS011;4604;48.616;9.548;2022-08-18T04:51:42;9.25;;;8.25;;
9138;SDS011;4604;48.616;9.548;2022-08-18T04:54:30;11.00;;;8.07;;
9138;SDS011;4604;48.616;9.548;2022-08-18T04:56:56;9.70;;;7.85;;
9138;SDS011;4604;48.616;9.548;2022-08-18T04:59:22;9.07;;;8.18;;
9138;SDS011;4604;48.616;9.548;2022-08-18T05:01:50;10.40;;;7.60;;
9138;SDS011;4604;48.616;9.548;2022-08-18T05:04:18;11.50;;;7.60;;
9138;SDS011;4604;48.616;9.548;2022-08-18T05:06:45;9.10;;;7.78;;
9138;SDS011;4604;48.616;9.548;2022-08-18T05:09:13;8.85;;;7.07;;
9138;SDS011;4604;48.616;9.548;2022-08-18T05:11:40;10.50;;;8.13;;
9138;SDS011;4604;48.616;9.548;2022-08-18T05:14:08;9.13;;;7.53;;
9138;SDS011;4604;48.616;9.548;2022-08-18T05:16:36;9.10;;;7.45;;
9138;SDS011;4604;48.616;9.548;2022-08-18T05:19:04;10.30;;;7.40;;
9138;SDS011;4604;48.616;9.548;2022-08-18T05:21:34;10.80;;;7.75;;
9138;SDS011;4604;48.616;9.548;2022-08-18T05:24:02;13.85;;;8.25;;
9138;SDS011;4604;48.616;9.548;2022-08-18T05:26:30;10.07;;;7.45;;
9138;SDS011;4604;48.616;9.548;2022-08-18T05:28:57;10.30;;;7.68;;
9138;SDS011;4604;48.616;9.548;2022-08-18T05:31:25;11.00;;;7.93;;
9138;SDS011;4604;48.616;9.548;2022-08-18T05:33:54;8.88;;;7.35;;
9138;SDS011;4604;48.616;9.548;2022-08-18T05:36:26;12.50;;;7.05;;
9138;SDS011;4604;48.616;9.548;2022-08-18T05:39:11;8.15;;;7.13;;
9138;SDS011;4604;48.616;9.548;2022-08-18T05:41:45;9.10;;;7.38;;
9138;SDS011;4604;48.616;9.548;2022-08-18T05:44:18;10.60;;;8.50;;
9138;SDS011;4604;48.616;9.548;2022-08-18T05:46:49;8.57;;;7.68;;
9138;SDS011;4604;48.616;9.548;2022-08-18T05:49:17;8.82;;;7.68;;
9138;SDS011;4604;48.616;9.548;2022-08-18T05:51:47;9.68;;;8.00;;
9138;SDS011;4604;48.616;9.548;2022-08-18T05:54:16;7.97;;;7.18;;
9138;SDS011;4604;48.616;9.548;2022-08-18T05:57:03;9.88;;;8.40;;
9138;SDS011;4604;48.616;9.548;2022-08-18T05:59:40;8.50;;;7.60;;
9138;SDS011;4604;48.616;9.548;2022-08-18T06:02:09;10.15;;;8.25;;
9138;SDS011;4604;48.616;9.548;2022-08-18T06:04:42;11.63;;;7.70;;
9138;SDS011;4604;48.616;9.548;2022-08-18T06:07:17;8.60;;;6.55;;
9138;SDS011;4604;48.616;9.548;2022-08-18T06:09:52;8.43;;;6.95;;
9138;SDS011;4604;48.616;9.548;2022-08-18T06:12:27;9.18;;;8.10;;
9138;SDS011;4604;48.616;9.548;2022-08-18T06:15:00;9.77;;;7.97;;
9138;SDS011;4604;48.616;9.548;2022-08-18T06:17:36;10.05;;;7.60;;
9138;SDS011;4604;48.616;9.548;2022-08-18T06:20:17;8.80;;;7.90;;
9138;SDS011;4604;48.616;9.548;2022-08-18T06:22:54;9.63;;;7.90;;
9138;SDS011;4604;48.616;9.548;2022-08-18T06:25:30;12.40;;;8.57;;
9138;SDS011;4604;48.616;9.548;2022-08-18T06:28:07;12.70;;;7.93;;
9138;SDS011;4604;48.616;9.548;2022-08-18T06:30:43;9.73;;;7.72;;
9138;SDS011;4604;48.616;9.548;2022-08-18T06:33:17;8.93;;;8.02;;
9138;SDS011;4604;48.616;9.548;2022-08-18T06:36:01;8.77;;;7.88;;
9138;SDS011;4604;48.616;9.548;2022-08-18T06:38:43;9.15;;;7.35;;
9138;SDS011;4604;48.616;9.548;2022-08-18T06:41:18;10.00;;;8.30;;
9138;SDS011;4604;48.616;9.548;2022-08-18T06:43:54;8.45;;;7.55;;
9138;SDS011;4604;48.616;9.548;2022-08-18T06:46:28;10.57;;;8.90;;
9138;SDS011;4604;48.616;9.548;2022-08-18T06:49:03;10.88;;;7.97;;
9138;SDS011;4604;48.616;9.548;2022-08-18T06:51:32;11.25;;;8.95;;
9138;SDS011;4604;48.616;9.548;2022-08-18T06:54:02;8.93;;;7.97;;
9138;SDS011;4604;48.616;9.548;2022-08-18T06:56:45;8.00;;;7.20;;
9138;SDS011;4604;48.616;9.548;2022-08-18T06:59:17;8.00;;;7.20;;
9138;SDS011;4604;48.616;9.548;2022-08-18T07:01:49;8.60;;;7.20;;
9138;SDS011;4604;48.616;9.548;2022-08-18T07:04:37;7.90;;;7.10;;
9138;SDS011;4604;48.616;9.548;2022-08-18T07:07:11;7.65;;;6.85;;
9138;SDS011;4604;48.616;9.548;2022-08-18T07:09:42;7.60;;;6.82;;
9138;SDS011;4604;48.616;9.548;2022-08-18T07:12:09;9.02;;;6.95;;
9138;SDS011;4604;48.616;9.548;2022-08-18T07:14:44;8.98;;;7.72;;
9138;SDS011;4604;48.616;9.548;2022-08-18T07:17:13;8.13;;;7.13;;
9138;SDS011;4604;48.616;9.548;2022-08-18T07:19:53;6.72;;;5.82;;
9138;SDS011;4604;48.616;9.548;2022-08-18T07:22:25;9.00;;;6.68;;
9138;SDS011;4604;48.616;9.548;2022-08-18T07:24:54;6.50;;;5.90;;
9138;SDS011;4604;48.616;9.548;2022-08-18T07:27:38;6.32;;;5.68;;
9138;SDS011;4604;48.616;9.548;2022-08-18T07:30:08;6.65;;;6.00;;
9138;SDS011;4604;48.616;9.548;2022-08-18T07:32:38;6.43;;;5.82;;
9138;SDS011;4604;48.616;9.548;2022-08-18T07:35:12;7.22;;;5.82;;
9138;SDS011;4604;48.616;9.548;2022-08-18T07:37:44;6.10;;;5.50;;
9138;SDS011;4604;48.616;9.548;2022-08-18T07:40:21;6.95;;;6.03;;
9138;SDS011;4604;48.616;9.548;2022-08-18T07:42:53;7.68;;;6.57;;
9138;SDS011;4604;48.616;9.548;2022-08-18T07:45:26;7.07;;;5.95;;
9138;SDS011;4604;48.616;9.548;2022-08-18T07:47:58;7.50;;;6.80;;
9138;SDS011;4604;48.616;9.548;2022-08-18T07:50:32;8.23;;;5.82;;
9138;SDS011;4604;48.616;9.548;2022-08-18T07:53:06;6.75;;;6.15;;
9138;SDS011;4604;48.616;9.548;2022-08-18T07:55:40;6.28;;;5.68;;
9138;SDS011;4604;48.616;9.548;2022-08-18T07:58:14;6.55;;;5.88;;
9138;SDS011;4604;48.616;9.548;2022-08-18T08:00:52;7.50;;;6.63;;
9138;SDS011;4604;48.616;9.548;2022-08-18T08:03:29;8.95;;;6.45;;
9138;SDS011;4604;48.616;9.548;2022-08-18T08:06:03;6.75;;;6.15;;
9138;SDS011;4604;48.616;9.548;2022-08-18T08:08:36;7.28;;;6.57;;
9138;SDS011;4604;48.616;9.548;2022-08-18T08:11:12;7.85;;;6.70;;
9138;SDS011;4604;48.616;9.548;2022-08-18T08:13:49;7.35;;;6.65;;
9138;SDS011;4604;48.616;9.548;2022-08-18T08:16:25;6.75;;;6.05;;
9138;SDS011;4604;48.616;9.548;2022-08-18T08:19:02;6.63;;;6.00;;
9138;SDS011;4604;48.616;9.548;2022-08-18T08:21:36;6.63;;;6.03;;
9138;SDS011;4604;48.616;9.548;2022-08-18T08:24:10;6.82;;;6.05;;
9138;SDS011;4604;48.616;9.548;2022-08-18T08:26:47;8.18;;;6.78;;
9138;SDS011;4604;48.616;9.548;2022-08-18T08:29:27;7.05;;;6.00;;
9138;SDS011;4604;48.616;9.548;2022-08-18T08:32:02;6.90;;;6.22;;
9138;SDS011;4604;48.616;9.548;2022-08-18T08:34:33;6.40;;;5.78;;
9138;SDS011;4604;48.616;9.548;2022-08-18T08:37:09;7.05;;;5.30;;
9138;SDS011;4604;48.616;9.548;2022-08-18T08:39:41;6.68;;;5.97;;
9138;SDS011;4604;48.616;9.548;2022-08-18T08:42:14;6.47;;;5.70;;
9138;SDS011;4604;48.616;9.548;2022-08-18T08:44:46;7.80;;;6.60;;
9138;SDS011;4604;48.616;9.548;2022-08-18T08:47:17;6.78;;;6.05;;
9138;SDS011;4604;48.616;9.548;2022-08-18T08:49:51;9.50;;;5.70;;
9138;SDS011;4604;48.616;9.548;2022-08-18T08:52:24;6.05;;;5.45;;
9138;SDS011;4604;48.616;9.548;2022-08-18T08:54:55;7.10;;;5.60;;
9138;SDS011;4604;48.616;9.548;2022-08-18T08:57:28;5.28;;;4.78;;
9138;SDS011;4604;48.616;9.548;2022-08-18T09:00:00;6.85;;;5.28;;
9138;SDS011;4604;48.616;9.548;2022-08-18T09:02:36;5.60;;;5.10;;
9138;SDS011;4604;48.616;9.548;2022-08-18T09:05:33;6.45;;;5.32;;
9138;SDS011;4604;48.616;9.548;2022-08-18T09:08:15;6.10;;;5.47;;
9138;SDS011;4604;48.616;9.548;2022-08-18T09:16:53;6.25;;;5.35;;
9138;SDS011;4604;48.616;9.548;2022-08-18T09:19:34;6.63;;;5.35;;
9138;SDS011;4604;48.616;9.548;2022-08-18T09:22:18;5.60;;;5.10;;
9138;SDS011;4604;48.616;9.548;2022-08-18T09:24:55;6.38;;;5.70;;
9138;SDS011;4604;48.616;9.548;2022-08-18T09:27:28;6.18;;;5.05;;
9138;SDS011;4604;48.616;9.548;2022-08-18T09:30:03;9.02;;;6.75;;
9138;SDS011;4604;48.616;9.548;2022-08-18T09:32:36;6.97;;;6.28;;
9138;SDS011;4604;48.616;9.548;2022-08-18T09:35:24;7.13;;;6.05;;
9138;SDS011;4604;48.616;9.548;2022-08-18T09:38:12;8.88;;;6.22;;
9138;SDS011;4604;48.616;9.548;2022-08-18T09:41:03;5.93;;;5.32;;
9138;SDS011;4604;48.616;9.548;2022-08-18T09:43:53;5.95;;;5.35;;
9138;SDS011;4604;48.616;9.548;2022-08-18T09:49:39;7.35;;;5.90;;
9138;SDS011;4604;48.616;9.548;2022-08-18T09:58:46;6.68;;;5.63;;
9138;SDS011;4604;48.616;9.548;2022-08-18T10:04:18;5.60;;;5.05;;
9138;SDS011;4604;48.616;9.548;2022-08-18T10:10:03;7.45;;;6.03;;
9138;SDS011;4604;48.616;9.548;2022-08-18T10:15:47;6.25;;;5.65;;
9138;SDS011;4604;48.616;9.548;2022-08-18T10:18:29;6.93;;;6.22;;
9138;SDS011;4604;48.616;9.548;2022-08-18T10:21:13;8.13;;;7.32;;
9138;SDS011;4604;48.616;9.548;2022-08-18T10:23:55;7.10;;;6.40;;
9138;SDS011;4604;48.616;9.548;2022-08-18T10:29:43;7.15;;;5.90;;
9138;SDS011;4604;48.616;9.548;2022-08-18T10:38:26;7.10;;;6.00;;
9138;SDS011;4604;48.616;9.548;2022-08-18T10:41:03;8.40;;;7.00;;
9138;SDS011;4604;48.616;9.548;2022-08-18T10:43:34;10.77;;;8.07;;
9138;SDS011;4604;48.616;9.548;2022-08-18T10:46:05;7.75;;;6.88;;
9138;SDS011;4604;48.616;9.548;2022-08-18T10:48:42;8.00;;;7.13;;
9138;SDS011;4604;48.616;9.548;2022-08-18T10:51:12;8.25;;;7.20;;
9138;SDS011;4604;48.616;9.548;2022-08-18T10:53:47;7.93;;;7.13;;
9138;SDS011;4604;48.616;9.548;2022-08-18T10:56:24;8.80;;;7.60;;
9138;SDS011;4604;48.616;9.548;2022-08-18T10:59:00;7.75;;;6.95;;
9138;SDS011;4604;48.616;9.548;2022-08-18T11:01:38;8.55;;;6.97;;
9138;SDS011;4604;48.616;9.548;2022-08-18T11:04:23;9.02;;;7.40;;
9138;SDS011;4604;48.616;9.548;2022-08-18T11:06:55;8.90;;;7.95;;
9138;SDS011;4604;48.616;9.548;2022-08-18T11:09:31;7.80;;;7.00;;
9138;SDS011;4604;48.616;9.548;2022-08-18T11:11:59;7.47;;;6.65;;
9138;SDS011;4604;48.616;9.548;2022-08-18T11:14:35;7.65;;;6.85;;
9138;SDS011;4604;48.616;9.548;2022-08-18T11:17:19;9.60;;;8.20;;
9138;SDS011;4604;48.616;9.548;2022-08-18T11:19:55;8.73;;;7.80;;
9138;SDS011;4604;48.616;9.548;2022-08-18T11:22:26;9.55;;;7.28;;
9138;SDS011;4604;48.616;9.548;2022-08-18T11:24:56;7.88;;;6.78;;
9138;SDS011;4604;48.616;9.548;2022-08-18T11:27:24;9.52;;;7.47;;
9138;SDS011;4604;48.616;9.548;2022-08-18T11:29:52;8.60;;;7.70;;
9138;SDS011;4604;48.616;9.548;2022-08-18T11:32:21;10.20;;;6.82;;
9138;SDS011;4604;48.616;9.548;2022-08-18T11:34:58;8.45;;;7.03;;
9138;SDS011;4604;48.616;9.548;2022-08-18T11:37:30;9.20;;;8.25;;
9138;SDS011;4604;48.616;9.548;2022-08-18T11:40:06;8.23;;;6.93;;
9138;SDS011;4604;48.616;9.548;2022-08-18T11:42:49;8.50;;;7.60;;
9138;SDS011;4604;48.616;9.548;2022-08-18T11:45:23;9.70;;;7.53;;
9138;SDS011;4604;48.616;9.548;2022-08-18T11:47:59;10.43;;;8.13;;
9138;SDS011;4604;48.616;9.548;2022-08-18T11:50:43;8.30;;;7.50;;
9138;SDS011;4604;48.616;9.548;2022-08-18T11:53:12;10.02;;;7.75;;
9138;SDS011;4604;48.616;9.548;2022-08-18T11:55:44;9.77;;;8.68;;
9138;SDS011;4604;48.616;9.548;2022-08-18T11:58:11;9.20;;;8.07;;
9138;SDS011;4604;48.616;9.548;2022-08-18T12:01:07;7.65;;;6.85;;
9138;SDS011;4604;48.616;9.548;2022-08-18T12:03:38;9.90;;;7.72;;
9138;SDS011;4604;48.616;9.548;2022-08-18T12:06:11;9.02;;;7.82;;
9138;SDS011;4604;48.616;9.548;2022-08-18T12:08:48;8.98;;;8.07;;
9138;SDS011;4604;48.616;9.548;2022-08-18T12:11:19;11.50;;;9.20;;
9138;SDS011;4604;48.616;9.548;2022-08-18T12:13:57;11.13;;;8.73;;
9138;SDS011;4604;48.616;9.548;2022-08-18T12:16:31;11.90;;;9.45;;
9138;SDS011;4604;48.616;9.548;2022-08-18T12:19:02;9.13;;;8.23;;
9138;SDS011;4604;48.616;9.548;2022-08-18T12:21:30;12.75;;;9.45;;
9138;SDS011;4604;48.616;9.548;2022-08-18T12:23:57;13.02;;;8.90;;
9138;SDS011;4604;48.616;9.548;2022-08-18T12:26:24;9.40;;;8.48;;
9138;SDS011;4604;48.616;9.548;2022-08-18T12:28:51;8.65;;;7.75;;
9138;SDS011;4604;48.616;9.548;2022-08-18T12:31:19;11.32;;;8.35;;
9138;SDS011;4604;48.616;9.548;2022-08-18T12:33:46;9.35;;;8.32;;
9138;SDS011;4604;48.616;9.548;2022-08-18T12:36:13;10.52;;;9.23;;
9138;SDS011;4604;48.616;9.548;2022-08-18T12:38:40;9.68;;;8.63;;
9138;SDS011;4604;48.616;9.548;2022-08-18T12:41:11;9.32;;;8.43;;
9138;SDS011;4604;48.616;9.548;2022-08-18T12:43:39;9.82;;;8.82;;
9138;SDS011;4604;48.616;9.548;2022-08-18T12:46:07;9.85;;;8.52;;
9138;SDS011;4604;48.616;9.548;2022-08-18T12:48:35;11.18;;;7.93;;
9138;SDS011;4604;48.616;9.548;2022-08-18T12:51:03;11.13;;;8.77;;
9138;SDS011;4604;48.616;9.548;2022-08-18T12:53:31;8.77;;;7.88;;
9138;SDS011;4604;48.616;9.548;2022-08-18T12:55:57;8.95;;;7.85;;
9138;SDS011;4604;48.616;9.548;2022-08-18T12:58:25;9.13;;;8.23;;
9138;SDS011;4604;48.616;9.548;2022-08-18T13:00:52;9.60;;;8.68;;
9138;SDS011;4604;48.616;9.548;2022-08-18T13:03:19;9.52;;;7.93;;
9138;SDS011;4604;48.616;9.548;2022-08-18T13:05:47;7.88;;;7.07;;
9138;SDS011;4604;48.616;9.548;2022-08-18T13:08:15;8.07;;;7.28;;
9138;SDS011;4604;48.616;9.548;2022-08-18T13:10:43;9.27;;;7.18;;
9138;SDS011;4604;48.616;9.548;2022-08-18T13:13:10;8.27;;;7.47;;
9138;SDS011;4604;48.616;9.548;2022-08-18T13:15:37;9.60;;;7.30;;
9138;SDS011;4604;48.616;9.548;2022-08-18T13:18:04;7.97;;;7.15;;
9138;SDS011;4604;48.616;9.548;2022-08-18T13:20:31;9.77;;;6.72;;
9138;SDS011;4604;48.616;9.548;2022-08-18T13:22:59;7.82;;;7.00;;
9138;SDS011;4604;48.616;9.548;2022-08-18T13:25:26;10.15;;;7.47;;
9138;SDS011;4604;48.616;9.548;2022-08-18T13:27:53;8.27;;;7.38;;
9138;SDS011;4604;48.616;9.548;2022-08-18T13:30:21;8.60;;;7.07;;
9138;SDS011;4604;48.616;9.548;2022-08-18T13:32:48;7.88;;;7.07;;
9138;SDS011;4604;48.616;9.548;2022-08-18T13:35:15;7.97;;;7.18;;
9138;SDS011;4604;48.616;9.548;2022-08-18T13:37:42;7.47;;;6.65;;
9138;SDS011;4604;48.616;9.548;2022-08-18T13:40:11;7.47;;;6.75;;
9138;SDS011;4604;48.616;9.548;2022-08-18T13:42:42;9.63;;;6.63;;
9138;SDS011;4604;48.616;9.548;2022-08-18T13:45:13;8.38;;;6.72;;
9138;SDS011;4604;48.616;9.548;2022-08-18T13:47:41;9.85;;;7.20;;
9138;SDS011;4604;48.616;9.548;2022-08-18T13:50:08;7.95;;;7.15;;
9138;SDS011;4604;48.616;9.548;2022-08-18T13:52:36;7.75;;;7.05;;
9138;SDS011;4604;48.616;9.548;2022-08-18T13:55:06;10.45;;;6.50;;
9138;SDS011;4604;48.616;9.548;2022-08-18T13:57:36;8.55;;;7.63;;
9138;SDS011;4604;48.616;9.548;2022-08-18T14:00:04;8.88;;;8.02;;
9138;SDS011;4604;48.616;9.548;2022-08-18T14:02:35;7.85;;;7.15;;
9138;SDS011;4604;48.616;9.548;2022-08-18T14:05:02;8.70;;;6.97;;
9138;SDS011;4604;48.616;9.548;2022-08-18T14:07:29;8.00;;;7.20;;
9138;SDS011;4604;48.616;9.548;2022-08-18T14:09:56;7.53;;;6.82;;
9138;SDS011;4604;48.616;9.548;2022-08-18T14:12:23;7.88;;;7.07;;
9138;SDS011;4604;48.616;9.548;2022-08-18T14:14:52;8.32;;;7.30;;
9138;SDS011;4604;48.616;9.548;2022-08-18T14:17:20;8.15;;;6.97;;
9138;SDS011;4604;48.616;9.548;2022-08-18T14:19:48;7.07;;;6.38;;
9138;SDS011;4604;48.616;9.548;2022-08-18T14:22:33;7.63;;;6.93;;
9138;SDS011;4604;48.616;9.548;2022-08-18T14:25:17;9.95;;;7.80;;
9138;SDS011;4604;48.616;9.548;2022-08-18T14:28:01;7.88;;;7.10;;
9138;SDS011;4604;48.616;9.548;2022-08-18T14:30:29;9.27;;;7.15;;
9138;SDS011;4604;48.616;9.548;2022-08-18T14:32:56;7.38;;;6.60;;
9138;SDS011;4604;48.616;9.548;2022-08-18T14:35:23;7.50;;;6.80;;
9138;SDS011;4604;48.616;9.548;2022-08-18T14:37:50;7.72;;;6.60;;
9138;SDS011;4604;48.616;9.548;2022-08-18T14:40:17;9.95;;;6.50;;
9138;SDS011;4604;48.616;9.548;2022-08-18T14:42:45;7.60;;;6.90;;
9138;SDS011;4604;48.616;9.548;2022-08-18T14:45:12;8.10;;;7.30;;
9138;SDS011;4604;48.616;9.548;2022-08-18T14:47:41;8.27;;;6.78;;
9138;SDS011;4604;48.616;9.548;2022-08-18T14:50:08;8.32;;;7.05;;
9138;SDS011;4604;48.616;9.548;2022-08-18T14:52:37;8.27;;;6.93;;
9138;SDS011;4604;48.616;9.548;2022-08-18T14:55:06;10.23;;;7.25;;
9138;SDS011;4604;48.616;9.548;2022-08-18T14:57:35;9.57;;;7.35;;
9138;SDS011;4604;48.616;9.548;2022-08-18T15:00:03;8.40;;;7.20;;
9138;SDS011;4604;48.616;9.548;2022-08-18T15:02:34;8.27;;;6.72;;
9138;SDS011;4604;48.616;9.548;2022-08-18T15:05:02;7.30;;;6.60;;
9138;SDS011;4604;48.616;9.548;2022-08-18T15:07:29;7.00;;;6.30;;
9138;SDS011;4604;48.616;9.548;2022-08-18T15:09:56;9.15;;;6.85;;
9138;SDS011;4604;48.616;9.548;2022-08-18T15:12:23;9.13;;;6.93;;
9138;SDS011;4604;48.616;9.548;2022-08-18T15:14:51;7.80;;;6.75;;
9138;SDS011;4604;48.616;9.548;2022-08-18T15:17:18;8.52;;;6.97;;
9138;SDS011;4604;48.616;9.548;2022-08-18T15:19:45;7.90;;;7.10;;
9138;SDS011;4604;48.616;9.548;2022-08-18T15:22:14;7.00;;;6.30;;
9138;SDS011;4604;48.616;9.548;2022-08-18T15:24:58;9.00;;;7.50;;
9138;SDS011;4604;48.616;9.548;2022-08-18T15:27:43;7.13;;;6.43;;
9138;SDS011;4604;48.616;9.548;2022-08-18T15:30:10;9.02;;;6.97;;
9138;SDS011;4604;48.616;9.548;2022-08-18T15:32:40;8.20;;;7.30;;
9138;SDS011;4604;48.616;9.548;2022-08-18T15:35:07;8.00;;;7.20;;
9138;SDS011;4604;48.616;9.548;2022-08-18T15:37:36;8.15;;;7.35;;
9138;SDS011;4604;48.616;9.548;2022-08-18T15:40:07;8.80;;;7.30;;
9138;SDS011;4604;48.616;9.548;2022-08-18T15:42:38;8.15;;;7.32;;
9138;SDS011;4604;48.616;9.548;2022-08-18T15:45:08;7.63;;;6.82;;
9138;SDS011;4604;48.616;9.548;2022-08-18T15:47:35;7.90;;;7.15;;
9138;SDS011;4604;48.616;9.548;2022-08-18T15:50:04;12.25;;;7.45;;
9138;SDS011;4604;48.616;9.548;2022-08-18T15:52:31;8.10;;;6.80;;
9138;SDS011;4604;48.616;9.548;2022-08-18T15:55:00;8.63;;;6.57;;
9138;SDS011;4604;48.616;9.548;2022-08-18T15:57:27;7.55;;;6.85;;
9138;SDS011;4604;48.616;9.548;2022-08-18T15:59:54;8.88;;;7.35;;
9138;SDS011;4604;48.616;9.548;2022-08-18T16:02:21;8.38;;;7.47;;
9138;SDS011;4604;48.616;9.548;2022-08-18T16:04:49;9.13;;;6.82;;
9138;SDS011;4604;48.616;9.548;2022-08-18T16:07:17;8.13;;;7.32;;
9138;SDS011;4604;48.616;9.548;2022-08-18T16:09:44;8.02;;;7.22;;
9138;SDS011;4604;48.616;9.548;2022-08-18T16:12:12;7.72;;;6.93;;